createdAt,value
2018-03-14T00:01:42.796Z,22.47
2018-03-14T00:04:09.274Z,23.70
2018-03-14T00:06:35.274Z,22.30
2018-03-14T00:09:01.334Z,23.40
2018-03-14T00:11:27.355Z,23.27
2018-03-14T00:13:53.395Z,25.27
2018-03-14T00:16:19.430Z,23.50
2018-03-14T00:18:45.474Z,24.67
2018-03-14T00:21:12.239Z,24.73
2018-03-14T00:23:38.322Z,22.47
2018-03-14T00:26:04.914Z,25.90
2018-03-14T00:28:30.933Z,24.63
2018-03-14T00:30:56.945Z,28.00
2018-03-14T00:33:22.996Z,28.80
2018-03-14T00:35:49.054Z,25.63
2018-03-14T00:38:15.653Z,25.57
2018-03-14T00:40:41.777Z,28.30
2018-03-14T00:43:07.793Z,28.83
2018-03-14T00:45:33.817Z,27.20
2018-03-14T00:47:59.854Z,27.30
2018-03-14T00:50:25.910Z,27.20
2018-03-14T00:52:51.968Z,29.77
2018-03-14T00:55:18.020Z,26.70
2018-03-14T00:57:44.659Z,25.83
2018-03-14T01:00:10.722Z,31.87
2018-03-14T01:02:36.825Z,28.67
2018-03-14T01:05:02.859Z,29.00
2018-03-14T01:07:29.161Z,29.57
2018-03-14T01:09:55.170Z,31.17
2018-03-14T01:12:21.284Z,29.23
2018-03-14T01:14:48.070Z,26.63
2018-03-14T01:17:14.090Z,24.87
2018-03-14T01:19:40.097Z,26.03
2018-03-14T01:22:06.132Z,28.73
2018-03-14T01:24:32.179Z,25.00
2018-03-14T01:26:58.278Z,26.23
2018-03-14T01:29:24.299Z,25.90
2018-03-14T01:31:50.326Z,23.77
2018-03-14T01:34:16.474Z,25.90
2018-03-14T01:36:42.538Z,24.83
2018-03-14T01:39:08.609Z,24.00
2018-03-14T01:41:34.614Z,26.90
2018-03-14T01:44:00.669Z,24.57
2018-03-14T01:46:26.682Z,24.93
2018-03-14T01:48:52.997Z,28.83
2018-03-14T01:51:19.046Z,24.83
2018-03-14T01:53:45.098Z,30.43
2018-03-14T01:56:11.426Z,36.63
2018-03-14T01:58:37.422Z,26.47
2018-03-14T02:01:03.438Z,24.67
2018-03-14T02:03:29.502Z,30.23
2018-03-14T02:05:55.550Z,28.30
2018-03-14T02:08:21.654Z,30.73
2018-03-14T02:10:48.413Z,29.40
2018-03-14T02:13:14.430Z,31.77
2018-03-14T02:15:40.463Z,30.77
2018-03-14T02:18:06.474Z,33.60
2018-03-14T02:20:32.514Z,28.90
2018-03-14T02:22:58.622Z,27.30
2018-03-14T02:25:25.373Z,30.80
2018-03-14T02:27:51.841Z,30.07
2018-03-14T02:30:17.859Z,27.30
2018-03-14T02:32:43.893Z,28.10
2018-03-14T02:35:09.955Z,29.90
2018-03-14T02:37:36.263Z,26.30
2018-03-14T02:40:02.322Z,29.80
2018-03-14T02:42:28.362Z,25.67
2018-03-14T02:44:54.793Z,28.83
2018-03-14T02:47:20.806Z,27.77
2018-03-14T02:49:46.817Z,27.27
2018-03-14T02:52:13.298Z,25.33
2018-03-14T02:54:39.334Z,26.80
2018-03-14T02:57:05.353Z,26.93
2018-03-14T02:59:31.350Z,27.37
2018-03-14T03:01:57.371Z,27.93
2018-03-14T03:04:23.433Z,29.80
2018-03-14T03:06:49.426Z,26.33
2018-03-14T03:09:15.442Z,28.20
2018-03-14T03:11:41.546Z,28.40
2018-03-14T03:14:07.547Z,28.23
2018-03-14T03:16:33.601Z,28.67
2018-03-14T03:19:00.353Z,24.03
2018-03-14T03:21:26.378Z,30.37
2018-03-14T03:23:52.418Z,29.13
2018-03-14T03:26:18.422Z,26.73
2018-03-14T03:28:44.490Z,27.67
2018-03-14T03:31:10.499Z,24.13
2018-03-14T03:33:36.741Z,23.90
2018-03-14T03:36:02.766Z,24.73
2018-03-14T03:38:28.805Z,24.30
2018-03-14T03:40:54.880Z,23.57
2018-03-14T03:43:20.906Z,25.93
2018-03-14T03:45:46.929Z,26.50
2018-03-14T03:48:13.673Z,23.53
2018-03-14T03:50:39.699Z,31.53
2018-03-14T03:53:05.773Z,31.20
2018-03-14T03:55:31.788Z,29.60
2018-03-14T03:57:58.632Z,32.07
2018-03-14T04:00:24.634Z,39.03
2018-03-14T04:02:50.647Z,39.13
2018-03-14T04:05:17.698Z,43.73
2018-03-14T04:07:43.742Z,50.27
2018-03-14T04:10:09.769Z,45.77
2018-03-14T04:12:35.793Z,43.50
2018-03-14T04:15:01.850Z,37.13
2018-03-14T04:17:27.889Z,43.23
2018-03-14T04:19:54.250Z,38.83
2018-03-14T04:22:20.258Z,42.20
2018-03-14T04:24:46.258Z,34.37
2018-03-14T04:27:12.290Z,35.70
2018-03-14T04:29:38.342Z,37.93
2018-03-14T04:32:04.391Z,35.83
2018-03-14T04:34:30.430Z,36.20
2018-03-14T04:36:56.446Z,36.63
2018-03-14T04:39:22.454Z,33.13
2018-03-14T04:41:48.510Z,39.63
2018-03-14T04:44:14.554Z,41.10
2018-03-14T04:46:41.358Z,39.53
2018-03-14T04:49:07.357Z,41.27
2018-03-14T04:51:33.346Z,43.03
2018-03-14T04:53:59.369Z,35.67
2018-03-14T04:56:25.403Z,36.63
2018-03-14T04:58:51.462Z,38.03
2018-03-14T05:01:17.474Z,36.63
2018-03-14T05:03:43.486Z,39.57
2018-03-14T05:06:09.522Z,39.27
2018-03-14T05:08:35.834Z,44.60
2018-03-14T05:11:02.652Z,33.57
2018-03-14T05:13:28.646Z,33.00
2018-03-14T05:15:54.660Z,32.17
2018-03-14T05:18:20.674Z,34.50
2018-03-14T05:20:46.677Z,38.17
2018-03-14T05:23:13.194Z,29.23
2018-03-14T05:25:39.198Z,28.23
2018-03-14T05:28:05.194Z,29.87
2018-03-14T05:30:32.123Z,28.97
2018-03-14T05:32:58.158Z,27.33
2018-03-14T05:35:24.270Z,28.80
2018-03-14T05:37:50.621Z,24.73
2018-03-14T05:40:16.758Z,28.27
2018-03-14T05:42:42.821Z,26.90
2018-03-14T05:45:09.579Z,26.47
2018-03-14T05:47:36.001Z,27.97
2018-03-14T05:50:02.021Z,24.20
2018-03-14T05:52:28.034Z,29.30
2018-03-14T05:54:54.070Z,26.60
2018-03-14T05:57:20.069Z,26.13
2018-03-14T05:59:46.155Z,25.63
2018-03-14T06:02:12.214Z,25.73
2018-03-14T06:04:38.266Z,27.20
2018-03-14T06:07:04.626Z,27.97
2018-03-14T06:09:30.673Z,26.90
2018-03-14T06:11:56.782Z,26.53
2018-03-14T06:14:22.822Z,25.10
2018-03-14T06:16:48.830Z,26.37
2018-03-14T06:19:14.849Z,26.17
2018-03-14T06:21:40.883Z,24.67
2018-03-14T06:24:06.930Z,27.23
2018-03-14T06:26:32.958Z,26.33
2018-03-14T06:28:58.973Z,26.07
2018-03-14T06:31:24.986Z,28.30
2018-03-14T06:33:50.982Z,29.30
2018-03-14T06:36:17.018Z,23.33
2018-03-14T06:38:43.069Z,28.53
2018-03-14T06:41:09.090Z,23.50
2018-03-14T06:43:35.129Z,27.93
2018-03-14T06:46:01.198Z,26.93
2018-03-14T06:48:27.251Z,30.80
2018-03-14T06:50:53.278Z,29.30
2018-03-14T06:53:19.314Z,30.80
2018-03-14T06:55:45.910Z,34.27
2018-03-14T06:58:24.232Z,33.17
2018-03-14T07:01:02.944Z,34.07
2018-03-14T07:03:41.230Z,35.23
2018-03-14T07:06:10.377Z,35.17
2018-03-14T07:08:36.403Z,37.63
2018-03-14T07:11:03.272Z,35.60
2018-03-14T07:13:29.331Z,34.93
2018-03-14T07:15:55.349Z,33.47
2018-03-14T07:18:21.374Z,33.17
2018-03-14T07:20:48.117Z,38.20
2018-03-14T07:23:14.158Z,36.23
2018-03-14T07:25:40.185Z,37.43
2018-03-14T07:28:06.266Z,38.27
2018-03-14T07:30:33.246Z,39.87
2018-03-14T07:32:59.265Z,39.13
2018-03-14T07:35:25.314Z,39.10
2018-03-14T07:37:51.558Z,40.40
2018-03-14T07:40:17.578Z,40.90
2018-03-14T07:42:43.622Z,43.20
2018-03-14T07:45:09.682Z,42.30
2018-03-14T07:47:35.738Z,42.00
2018-03-14T07:50:01.954Z,40.93
2018-03-14T07:52:27.976Z,41.50
2018-03-14T07:54:54.018Z,40.27
2018-03-14T07:57:20.030Z,39.33
2018-03-14T07:59:46.080Z,41.03
2018-03-14T08:02:12.110Z,41.77
2018-03-14T08:04:38.183Z,40.83
2018-03-14T08:07:04.266Z,39.07
2018-03-14T08:09:30.290Z,41.43
2018-03-14T08:11:56.330Z,38.00
2018-03-14T08:14:22.342Z,35.80
2018-03-14T08:16:48.719Z,37.60
2018-03-14T08:19:14.762Z,36.23
2018-03-14T08:21:40.769Z,35.60
2018-03-14T08:24:07.238Z,35.23
2018-03-14T08:26:33.263Z,32.50
2018-03-14T08:28:59.295Z,33.67
2018-03-14T08:31:25.384Z,35.37
2018-03-14T08:33:52.094Z,35.80
2018-03-14T08:36:18.170Z,34.20
2018-03-14T08:38:44.238Z,34.40
2018-03-14T08:41:10.606Z,37.40
2018-03-14T08:43:36.762Z,35.17
2018-03-14T08:46:02.807Z,33.47
2018-03-14T08:48:28.861Z,35.43
2018-03-14T08:50:54.897Z,38.80
2018-03-14T08:53:20.909Z,39.97
2018-03-14T08:55:47.000Z,33.10
2018-03-14T08:58:12.998Z,38.87
2018-03-14T09:00:39.042Z,40.27
2018-03-14T09:03:05.860Z,36.33
2018-03-14T09:05:31.881Z,43.07
2018-03-14T09:07:57.934Z,39.93
2018-03-14T09:10:24.719Z,38.17
2018-03-14T09:12:50.795Z,41.97
2018-03-14T09:15:16.876Z,34.83
2018-03-14T09:17:42.925Z,34.70
2018-03-14T09:20:08.975Z,35.63
2018-03-14T09:22:35.056Z,30.37
2018-03-14T09:25:01.255Z,32.70
2018-03-14T09:27:27.270Z,30.47
2018-03-14T09:29:53.351Z,32.27
2018-03-14T09:32:19.378Z,28.17
2018-03-14T09:34:45.990Z,29.10
2018-03-14T09:37:11.994Z,27.03
2018-03-14T09:39:38.041Z,26.53
2018-03-14T09:42:04.848Z,25.23
2018-03-14T09:44:30.870Z,23.87
2018-03-14T09:46:59.258Z,22.40
2018-03-14T09:49:25.284Z,18.93
2018-03-14T09:51:51.330Z,22.10
2018-03-14T09:54:17.358Z,19.27
2018-03-14T09:56:43.370Z,18.83
2018-03-14T09:59:09.429Z,17.90
2018-03-14T10:01:35.490Z,16.37
2018-03-14T10:04:01.661Z,16.60
2018-03-14T10:06:27.667Z,17.33
2018-03-14T10:08:53.681Z,15.87
2018-03-14T10:11:19.741Z,17.03
2018-03-14T10:13:46.677Z,18.77
2018-03-14T10:16:12.717Z,18.40
2018-03-14T10:18:38.755Z,17.53
2018-03-14T10:21:04.778Z,18.10
2018-03-14T10:23:30.806Z,16.83
2018-03-14T10:25:56.941Z,19.03
2018-03-14T10:28:23.213Z,16.83
2018-03-14T10:30:49.218Z,16.03
2018-03-14T10:33:15.291Z,13.77
2018-03-14T10:35:41.354Z,11.23
2018-03-14T10:38:08.160Z,12.03
2018-03-14T10:40:34.921Z,13.30
2018-03-14T10:43:01.031Z,14.17
2018-03-14T10:45:27.802Z,13.77
2018-03-14T10:54:35.577Z,12.20
2018-03-14T10:57:01.839Z,10.47
2018-03-14T10:59:27.927Z,10.40
2018-03-14T11:01:53.951Z,10.40
2018-03-14T11:04:19.970Z,10.77
2018-03-14T11:06:46.012Z,11.13
2018-03-14T11:09:12.086Z,11.73
2018-03-14T11:11:38.669Z,10.97
2018-03-14T11:14:04.678Z,10.50
2018-03-14T11:16:30.690Z,8.77
2018-03-14T11:18:56.742Z,7.63
2018-03-14T11:21:22.799Z,8.83
2018-03-14T11:23:48.822Z,11.87
2018-03-14T11:26:14.844Z,12.90
2018-03-14T11:28:40.849Z,10.53
2018-03-14T11:31:07.268Z,11.93
2018-03-14T11:33:33.333Z,13.70
2018-03-14T11:35:59.374Z,13.57
2018-03-14T11:38:26.170Z,14.80
2018-03-14T11:40:52.182Z,13.50
2018-03-14T11:43:18.342Z,13.53
2018-03-14T11:45:44.426Z,12.43
2018-03-14T11:48:10.423Z,13.00
2018-03-14T11:50:36.490Z,12.47
2018-03-14T11:53:02.521Z,12.43
2018-03-14T11:55:28.530Z,11.97
2018-03-14T11:57:54.606Z,12.53
2018-03-14T12:00:20.630Z,12.40
2018-03-14T12:02:47.379Z,12.33
2018-03-14T12:05:13.391Z,12.83
2018-03-14T12:07:39.450Z,12.70
2018-03-14T12:10:05.511Z,12.27
2018-03-14T12:12:31.522Z,13.03
2018-03-14T12:14:57.568Z,12.60
2018-03-14T12:17:23.592Z,13.57
2018-03-14T12:19:49.722Z,11.83
2018-03-14T12:22:22.291Z,11.67
2018-03-14T12:24:48.317Z,10.37
2018-03-14T12:27:14.950Z,11.30
2018-03-14T12:29:41.667Z,12.07
2018-03-14T12:32:07.698Z,11.37
2018-03-14T12:34:33.858Z,11.63
2018-03-14T12:36:59.948Z,10.43
2018-03-14T12:39:25.958Z,10.57
2018-03-14T12:41:51.983Z,9.93
2018-03-14T12:44:18.319Z,10.43
2018-03-14T12:46:44.367Z,8.70
2018-03-14T12:49:10.406Z,9.30
2018-03-14T12:51:36.821Z,7.43
2018-03-14T12:54:02.892Z,9.03
2018-03-14T12:56:28.860Z,9.90
2018-03-14T12:58:55.185Z,12.13
2018-03-14T13:01:21.316Z,10.03
2018-03-14T13:03:47.326Z,10.93
2018-03-14T13:06:13.326Z,10.37
2018-03-14T13:08:39.381Z,9.43
2018-03-14T13:11:05.418Z,10.03
2018-03-14T13:13:31.473Z,9.80
2018-03-14T13:15:57.496Z,8.93
2018-03-14T13:18:23.546Z,10.90
2018-03-14T13:20:49.561Z,10.93
2018-03-14T13:23:15.571Z,12.53
2018-03-14T13:25:41.718Z,13.30
2018-03-14T13:28:08.530Z,13.87
2018-03-14T13:30:34.681Z,13.37
2018-03-14T13:33:00.958Z,12.97
2018-03-14T13:35:26.958Z,8.33
2018-03-14T13:37:52.983Z,9.53
2018-03-14T13:40:19.026Z,13.13
2018-03-14T13:42:45.126Z,11.67
2018-03-14T13:45:11.162Z,9.47
2018-03-14T13:47:37.716Z,8.80
2018-03-14T13:50:03.734Z,9.43
2018-03-14T13:52:29.761Z,8.60
2018-03-14T13:54:55.790Z,9.97
2018-03-14T13:57:21.902Z,9.53
2018-03-14T13:59:47.926Z,9.80
2018-03-14T14:02:13.930Z,9.37
2018-03-14T14:04:39.938Z,9.30
2018-03-14T14:07:05.970Z,9.97
2018-03-14T14:09:32.018Z,9.70
2018-03-14T14:11:58.050Z,9.90
2018-03-14T14:14:24.099Z,10.23
2018-03-14T14:16:50.130Z,9.73
2018-03-14T14:19:16.189Z,10.07
2018-03-14T14:21:42.258Z,9.47
2018-03-14T14:24:08.283Z,8.53
2018-03-14T14:26:34.338Z,9.43
2018-03-14T14:29:00.718Z,9.23
2018-03-14T14:31:26.827Z,9.20
2018-03-14T14:33:52.878Z,9.47
2018-03-14T14:36:18.910Z,9.03
2018-03-14T14:38:45.223Z,8.83
2018-03-14T14:41:11.459Z,7.83
2018-03-14T14:43:37.482Z,7.70
2018-03-14T14:46:03.913Z,8.30
2018-03-14T14:48:29.935Z,8.10
2018-03-14T14:50:55.961Z,7.50
2018-03-14T14:53:22.013Z,7.63
2018-03-14T14:55:48.418Z,7.70
2018-03-14T14:58:14.494Z,7.73
2018-03-14T15:00:40.514Z,9.27
2018-03-14T15:03:07.006Z,8.30
2018-03-14T15:05:33.035Z,7.67
2018-03-14T15:07:59.058Z,8.13
2018-03-14T15:10:25.148Z,7.33
2018-03-14T15:12:51.184Z,8.20
2018-03-14T15:15:17.263Z,7.90
2018-03-14T15:17:43.252Z,7.60
2018-03-14T15:20:09.470Z,7.33
2018-03-14T15:22:35.538Z,7.43
2018-03-14T15:25:01.699Z,7.70
2018-03-14T15:27:27.726Z,7.83
2018-03-14T15:29:53.890Z,7.90
2018-03-14T15:32:19.954Z,7.17
2018-03-14T15:34:46.208Z,7.60
2018-03-14T15:37:12.294Z,6.87
2018-03-14T15:39:38.314Z,6.83
2018-03-14T15:42:04.366Z,7.73
2018-03-14T15:44:31.222Z,7.17
2018-03-14T15:46:57.314Z,7.67
2018-03-14T15:49:23.806Z,7.40
2018-03-14T15:51:49.842Z,8.23
2018-03-14T15:54:15.878Z,8.23
2018-03-14T15:56:41.925Z,8.47
2018-03-14T15:59:07.962Z,8.70
2018-03-14T16:01:34.534Z,7.90
2018-03-14T16:04:00.630Z,8.10
2018-03-14T16:06:26.699Z,8.00
2018-03-14T16:08:52.716Z,9.53
2018-03-14T16:11:18.800Z,8.80
2018-03-14T16:13:44.916Z,8.80
2018-03-14T16:16:10.914Z,7.93
2018-03-14T16:18:36.924Z,8.83
2018-03-14T16:21:02.943Z,8.43
2018-03-14T16:23:29.370Z,8.37
2018-03-14T16:25:55.390Z,8.10
2018-03-14T16:28:21.533Z,8.27
2018-03-14T16:30:47.530Z,7.90
2018-03-14T16:33:13.542Z,8.17
2018-03-14T16:35:40.349Z,8.37
2018-03-14T16:38:06.430Z,8.23
2018-03-14T16:40:32.491Z,9.27
2018-03-14T16:42:58.554Z,8.37
2018-03-14T16:45:24.578Z,9.40
2018-03-14T16:47:50.590Z,8.97
2018-03-14T16:50:16.745Z,8.70
2018-03-14T16:52:42.802Z,8.97
2018-03-14T16:55:08.813Z,8.37
2018-03-14T16:57:34.859Z,8.67
2018-03-14T17:00:00.870Z,9.33
2018-03-14T17:02:26.913Z,9.43
2018-03-14T17:04:53.006Z,9.53
2018-03-14T17:07:19.441Z,9.10
2018-03-14T17:09:45.458Z,8.90
2018-03-14T17:12:11.766Z,9.97
2018-03-14T17:14:37.833Z,9.23
2018-03-14T17:17:03.902Z,9.10
2018-03-14T17:19:29.944Z,8.27
2018-03-14T17:21:55.998Z,9.10
2018-03-14T17:24:22.010Z,8.93
2018-03-14T17:26:48.074Z,8.93
2018-03-14T17:29:14.080Z,8.23
2018-03-14T17:31:40.314Z,8.40
2018-03-14T17:34:06.395Z,8.50
2018-03-14T17:36:32.398Z,8.73
2018-03-14T17:38:59.174Z,7.93
2018-03-14T17:41:25.186Z,8.67
2018-03-14T17:43:51.256Z,8.93
2018-03-14T17:46:17.345Z,8.53
2018-03-14T17:48:43.334Z,9.40
2018-03-14T17:51:10.309Z,8.93
2018-03-14T17:53:36.330Z,9.17
2018-03-14T17:56:02.395Z,9.53
2018-03-14T17:58:28.514Z,9.70
2018-03-14T18:00:54.539Z,9.17
2018-03-14T18:03:20.553Z,9.70
2018-03-14T18:05:46.867Z,9.43
2018-03-14T18:08:12.874Z,9.30
2018-03-14T18:10:39.238Z,9.30
2018-03-14T18:13:05.251Z,10.23
2018-03-14T18:15:31.270Z,10.23
2018-03-14T18:17:57.282Z,10.20
2018-03-14T18:20:23.298Z,9.50
2018-03-14T18:22:49.379Z,9.43
2018-03-14T18:25:15.406Z,10.07
2018-03-14T18:27:41.482Z,9.50
2018-03-14T18:30:07.506Z,10.40
2018-03-14T18:32:33.518Z,9.97
2018-03-14T18:34:59.610Z,11.13
2018-03-14T18:37:25.660Z,11.40
2018-03-14T18:39:52.402Z,10.73
2018-03-14T18:42:18.436Z,12.30
2018-03-14T18:44:44.459Z,11.97
2018-03-14T18:47:10.454Z,12.03
2018-03-14T18:49:36.513Z,13.10
2018-03-14T18:52:02.535Z,12.17
2018-03-14T18:54:28.986Z,13.57
2018-03-14T18:56:55.022Z,13.87
2018-03-14T18:59:21.036Z,13.13
2018-03-14T19:01:48.070Z,13.20
2018-03-14T19:04:14.302Z,13.57
2018-03-14T19:06:40.310Z,13.70
2018-03-14T19:09:06.336Z,14.97
2018-03-14T19:11:32.348Z,14.87
2018-03-14T19:13:58.566Z,15.17
2018-03-14T19:16:24.631Z,15.07
2018-03-14T19:18:50.662Z,15.37
2018-03-14T19:21:16.789Z,14.73
2018-03-14T19:23:42.802Z,15.43
2018-03-14T19:26:09.542Z,14.93
2018-03-14T19:28:35.571Z,13.83
2018-03-14T19:31:02.000Z,15.43
2018-03-14T19:33:28.048Z,14.73
2018-03-14T19:35:54.094Z,14.63
2018-03-14T19:38:20.925Z,15.27
2018-03-14T19:40:46.974Z,14.67
2018-03-14T19:43:13.721Z,14.93
2018-03-14T19:45:39.766Z,14.43
2018-03-14T19:48:05.790Z,14.97
2018-03-14T19:50:31.782Z,14.30
2018-03-14T19:52:57.834Z,14.93
2018-03-14T19:55:24.278Z,12.10
2018-03-14T19:57:50.514Z,13.23
2018-03-14T20:00:16.669Z,13.20
2018-03-14T20:02:42.677Z,13.43
2018-03-14T20:05:08.754Z,13.27
2018-03-14T20:07:34.782Z,13.23
2018-03-14T20:10:00.787Z,13.13
2018-03-14T20:12:27.251Z,13.13
2018-03-14T20:14:53.358Z,13.43
2018-03-14T20:17:20.166Z,12.63
2018-03-14T20:19:46.566Z,13.77
2018-03-14T20:22:12.594Z,12.80
2018-03-14T20:24:38.643Z,13.00
2018-03-14T20:27:04.690Z,12.80
2018-03-14T20:29:30.722Z,13.07
2018-03-14T20:31:57.262Z,12.03
2018-03-14T20:34:23.259Z,12.60
2018-03-14T20:36:49.298Z,13.17
2018-03-14T20:39:15.334Z,13.57
2018-03-14T20:41:41.398Z,13.77
2018-03-14T20:44:07.431Z,12.63
2018-03-14T20:46:33.851Z,12.80
2018-03-14T20:48:59.878Z,12.33
2018-03-14T20:51:25.873Z,12.87
2018-03-14T20:53:52.059Z,12.80
2018-03-14T20:56:18.187Z,12.90
2018-03-14T20:58:44.346Z,13.17
2018-03-14T21:01:10.470Z,13.10
2018-03-14T21:03:36.671Z,12.77
2018-03-14T21:06:03.517Z,14.40
2018-03-14T21:08:29.562Z,14.00
2018-03-14T21:10:56.325Z,12.63
2018-03-14T21:13:22.342Z,13.17
2018-03-14T21:15:48.355Z,12.70
2018-03-14T21:18:14.418Z,12.57
2018-03-14T21:20:40.462Z,13.37
2018-03-14T21:23:06.483Z,14.43
2018-03-14T21:25:33.110Z,13.77
2018-03-14T21:27:59.129Z,14.03
2018-03-14T21:30:26.421Z,14.23
2018-03-14T21:32:53.138Z,13.77
2018-03-14T21:35:19.138Z,13.90
2018-03-14T21:37:45.178Z,14.17
2018-03-14T21:40:11.486Z,13.83
2018-03-14T21:42:37.826Z,14.03
2018-03-14T21:45:03.890Z,13.63
2018-03-14T21:47:29.962Z,14.17
2018-03-14T21:49:55.950Z,13.77
2018-03-14T21:52:21.974Z,14.07
2018-03-14T21:54:47.992Z,13.80
2018-03-14T21:57:17.858Z,14.10
2018-03-14T21:59:43.895Z,13.77
2018-03-14T22:02:09.906Z,13.30
2018-03-14T22:04:35.961Z,14.30
2018-03-14T22:07:01.978Z,13.47
2018-03-14T22:09:28.070Z,13.57
2018-03-14T22:11:54.128Z,13.47
2018-03-14T22:14:20.191Z,14.03
2018-03-14T22:16:46.208Z,13.27
2018-03-14T22:19:12.226Z,13.20
2018-03-14T22:21:38.294Z,13.60
2018-03-14T22:24:04.350Z,13.93
2018-03-14T22:26:30.366Z,13.73
2018-03-14T22:28:56.442Z,13.07
2018-03-14T22:31:22.487Z,13.10
2018-03-14T22:33:48.535Z,13.60
2018-03-14T22:36:14.639Z,13.60
2018-03-14T22:38:40.643Z,12.43
2018-03-14T22:41:07.409Z,12.53
2018-03-14T22:43:33.422Z,12.13
2018-03-14T22:45:59.466Z,12.73
2018-03-14T22:48:25.534Z,12.00
2018-03-14T22:50:51.546Z,11.90
2018-03-14T22:53:17.562Z,11.07
2018-03-14T22:55:43.598Z,12.47
2018-03-14T22:58:09.646Z,12.50
2018-03-14T23:00:35.686Z,13.00
2018-03-14T23:03:01.771Z,12.17
2018-03-14T23:05:27.801Z,12.63
2018-03-14T23:07:53.813Z,12.83
2018-03-14T23:10:19.874Z,12.70
2018-03-14T23:12:45.930Z,13.40
2018-03-14T23:15:12.018Z,12.07
2018-03-14T23:17:38.035Z,13.60
2018-03-14T23:20:04.601Z,11.87
2018-03-14T23:22:30.738Z,12.53
2018-03-14T23:24:56.834Z,12.73
2018-03-14T23:27:22.990Z,11.50
2018-03-14T23:29:49.010Z,13.17
2018-03-14T23:32:15.077Z,12.37
2018-03-14T23:34:41.765Z,13.70
2018-03-14T23:37:07.778Z,13.03
2018-03-14T23:39:33.826Z,13.27
2018-03-14T23:41:59.942Z,13.07
2018-03-14T23:44:25.986Z,12.43
2018-03-14T23:46:52.016Z,13.93
2018-03-14T23:49:18.076Z,13.20
2018-03-14T23:51:44.469Z,13.20
2018-03-14T23:54:10.511Z,14.30
2018-03-14T23:56:36.658Z,13.53
2018-03-14T23:59:02.722Z,14.63
